sensor_id;sensor_type;location;lat;lon;timestamp;pressure;altitude;pressure_sealevel;temperature;humidity
77823;BME280;67013;49.730;17.292;2023-05-21T00:00:15;98698.66;;;16.99;70.97
77823;BME280;67013;49.730;17.292;2023-05-21T00:02:44;98700.77;;;17.01;70.89
77823;BME280;67013;49.730;17.292;2023-05-21T00:05:14;98707.07;;;17.03;70.79
77823;BME280;67013;49.730;17.292;2023-05-21T00:07:45;98705.80;;;17.04;70.80
77823;BME280;67013;49.730;17.292;2023-05-21T00:10:14;98702.38;;;17.04;70.78
77823;BME280;67013;49.730;17.292;2023-05-21T00:12:44;98702.25;;;17.02;70.75
77823;BME280;67013;49.730;17.292;2023-05-21T00:15:13;98706.85;;;17.00;70.62
77823;BME280;67013;49.730;17.292;2023-05-21T00:17:43;98713.09;;;16.99;70.65
77823;BME280;67013;49.730;17.292;2023-05-21T00:20:13;98710.63;;;16.99;70.57
77823;BME280;67013;49.730;17.292;2023-05-21T00:22:43;98704.13;;;16.97;70.76
77823;BME280;67013;49.730;17.292;2023-05-21T00:25:12;98699.56;;;16.93;70.79
77823;BME280;67013;49.730;17.292;2023-05-21T00:27:42;98687.15;;;16.87;70.89
77823;BME280;67013;49.730;17.292;2023-05-21T00:30:12;98689.79;;;16.81;70.96
77823;BME280;67013;49.730;17.292;2023-05-21T00:32:41;98684.80;;;16.74;71.05
77823;BME280;67013;49.730;17.292;2023-05-21T00:35:11;98680.13;;;16.68;71.17
77823;BME280;67013;49.730;17.292;2023-05-21T00:37:40;98677.63;;;16.65;71.27
77823;BME280;67013;49.730;17.292;2023-05-21T00:40:11;98675.18;;;16.61;71.29
77823;BME280;67013;49.730;17.292;2023-05-21T00:42:41;98673.63;;;16.51;71.44
77823;BME280;67013;49.730;17.292;2023-05-21T00:45:15;98681.27;;;16.39;71.60
77823;BME280;67013;49.730;17.292;2023-05-21T00:47:44;98672.52;;;16.29;71.90
77823;BME280;67013;49.730;17.292;2023-05-21T00:50:16;98672.69;;;16.21;72.13
77823;BME280;67013;49.730;17.292;2023-05-21T00:52:45;98671.73;;;16.12;72.39
77823;BME280;67013;49.730;17.292;2023-05-21T00:55:16;98668.17;;;16.05;72.58
77823;BME280;67013;49.730;17.292;2023-05-21T00:57:45;98663.84;;;15.97;72.89
77823;BME280;67013;49.730;17.292;2023-05-21T01:00:16;98661.14;;;15.90;73.02
77823;BME280;67013;49.730;17.292;2023-05-21T01:02:46;98658.16;;;15.84;73.27
77823;BME280;67013;49.730;17.292;2023-05-21T01:05:17;98655.35;;;15.78;73.45
77823;BME280;67013;49.730;17.292;2023-05-21T01:07:47;98656.00;;;15.72;73.59
77823;BME280;67013;49.730;17.292;2023-05-21T01:10:16;98651.34;;;15.65;73.84
77823;BME280;67013;49.730;17.292;2023-05-21T01:12:47;98654.77;;;15.60;74.08
77823;BME280;67013;49.730;17.292;2023-05-21T01:15:17;98644.95;;;15.56;74.23
77823;BME280;67013;49.730;17.292;2023-05-21T01:17:47;98647.30;;;15.52;74.56
77823;BME280;67013;49.730;17.292;2023-05-21T01:20:17;98643.11;;;15.50;74.50
77823;BME280;67013;49.730;17.292;2023-05-21T01:22:55;98643.27;;;15.48;74.69
77823;BME280;67013;49.730;17.292;2023-05-21T01:25:25;98638.02;;;15.46;74.77
77823;BME280;67013;49.730;17.292;2023-05-21T01:27:55;98634.43;;;15.45;74.80
77823;BME280;67013;49.730;17.292;2023-05-21T01:30:26;98631.05;;;15.44;74.87
77823;BME280;67013;49.730;17.292;2023-05-21T01:33:01;98631.41;;;15.42;74.96
77823;BME280;67013;49.730;17.292;2023-05-21T01:35:34;98631.88;;;15.41;75.02
77823;BME280;67013;49.730;17.292;2023-05-21T01:38:11;98627.55;;;15.40;75.03
77823;BME280;67013;49.730;17.292;2023-05-21T01:40:46;98622.05;;;15.41;75.03
77823;BME280;67013;49.730;17.292;2023-05-21T01:43:17;98621.95;;;15.44;75.01
77823;BME280;67013;49.730;17.292;2023-05-21T01:45:48;98616.98;;;15.46;75.01
77823;BME280;67013;49.730;17.292;2023-05-21T01:48:20;98607.85;;;15.48;75.00
77823;BME280;67013;49.730;17.292;2023-05-21T01:50:51;98606.95;;;15.51;74.97
77823;BME280;67013;49.730;17.292;2023-05-21T01:53:22;98607.80;;;15.53;74.94
77823;BME280;67013;49.730;17.292;2023-05-21T01:55:52;98603.92;;;15.53;74.87
77823;BME280;67013;49.730;17.292;2023-05-21T01:58:21;98601.49;;;15.51;74.75
77823;BME280;67013;49.730;17.292;2023-05-21T02:00:51;98600.09;;;15.49;74.67
77823;BME280;67013;49.730;17.292;2023-05-21T02:03:21;98600.58;;;15.48;74.69
77823;BME280;67013;49.730;17.292;2023-05-21T02:05:51;98597.70;;;15.45;74.76
77823;BME280;67013;49.730;17.292;2023-05-21T02:08:22;98597.10;;;15.42;74.78
77823;BME280;67013;49.730;17.292;2023-05-21T02:10:52;98596.63;;;15.39;74.81
77823;BME280;67013;49.730;17.292;2023-05-21T02:13:22;98596.42;;;15.37;74.85
77823;BME280;67013;49.730;17.292;2023-05-21T02:15:52;98596.71;;;15.36;74.94
77823;BME280;67013;49.730;17.292;2023-05-21T02:18:23;98595.16;;;15.36;74.93
77823;BME280;67013;49.730;17.292;2023-05-21T02:20:53;98599.45;;;15.35;75.01
77823;BME280;67013;49.730;17.292;2023-05-21T02:23:22;98599.77;;;15.33;74.98
77823;BME280;67013;49.730;17.292;2023-05-21T02:25:52;98599.34;;;15.32;75.01
77823;BME280;67013;49.730;17.292;2023-05-21T02:28:21;98594.80;;;15.32;75.00
77823;BME280;67013;49.730;17.292;2023-05-21T02:30:51;98594.85;;;15.31;75.07
77823;BME280;67013;49.730;17.292;2023-05-21T02:33:20;98592.89;;;15.32;75.03
77823;BME280;67013;49.730;17.292;2023-05-21T02:35:50;98597.28;;;15.32;75.00
77823;BME280;67013;49.730;17.292;2023-05-21T02:38:19;98591.83;;;15.32;75.06
77823;BME280;67013;49.730;17.292;2023-05-21T02:40:50;98597.38;;;15.33;75.00
77823;BME280;67013;49.730;17.292;2023-05-21T02:43:20;98597.67;;;15.33;74.94
77823;BME280;67013;49.730;17.292;2023-05-21T02:45:49;98599.12;;;15.35;74.86
77823;BME280;67013;49.730;17.292;2023-05-21T02:48:19;98596.94;;;15.36;74.84
77823;BME280;67013;49.730;17.292;2023-05-21T02:50:49;98596.04;;;15.38;74.79
77823;BME280;67013;49.730;17.292;2023-05-21T02:53:18;98594.72;;;15.41;74.65
77823;BME280;67013;49.730;17.292;2023-05-21T02:55:48;98597.13;;;15.43;74.58
77823;BME280;67013;49.730;17.292;2023-05-21T02:58:17;98604.52;;;15.46;74.37
77823;BME280;67013;49.730;17.292;2023-05-21T03:00:48;98608.83;;;15.49;74.22
77823;BME280;67013;49.730;17.292;2023-05-21T03:03:18;98606.07;;;15.53;74.00
77823;BME280;67013;49.730;17.292;2023-05-21T03:05:48;98604.40;;;15.59;73.97
77823;BME280;67013;49.730;17.292;2023-05-21T03:08:17;98604.30;;;15.61;73.75
77823;BME280;67013;49.730;17.292;2023-05-21T03:10:47;98603.30;;;15.65;73.69
77823;BME280;67013;49.730;17.292;2023-05-21T03:13:16;98604.58;;;15.68;73.62
77823;BME280;67013;49.730;17.292;2023-05-21T03:15:46;98604.01;;;15.71;73.45
77823;BME280;67013;49.730;17.292;2023-05-21T03:18:16;98608.05;;;15.72;73.41
77823;BME280;67013;49.730;17.292;2023-05-21T03:20:45;98608.70;;;15.75;73.29
77823;BME280;67013;49.730;17.292;2023-05-21T03:23:15;98612.20;;;15.79;73.19
77823;BME280;67013;49.730;17.292;2023-05-21T03:25:44;98614.86;;;15.84;73.05
77823;BME280;67013;49.730;17.292;2023-05-21T03:28:14;98616.61;;;15.90;72.84
77823;BME280;67013;49.730;17.292;2023-05-21T03:30:44;98619.64;;;15.95;72.71
77823;BME280;67013;49.730;17.292;2023-05-21T03:33:16;98620.59;;;16.00;72.68
77823;BME280;67013;49.730;17.292;2023-05-21T03:35:46;98616.10;;;16.05;72.45
77823;BME280;67013;49.730;17.292;2023-05-21T03:38:16;98614.83;;;16.09;72.30
77823;BME280;67013;49.730;17.292;2023-05-21T03:40:46;98608.63;;;16.14;72.13
77823;BME280;67013;49.730;17.292;2023-05-21T03:43:15;98615.79;;;16.18;72.02
77823;BME280;67013;49.730;17.292;2023-05-21T03:45:45;98618.63;;;16.23;71.65
77823;BME280;67013;49.730;17.292;2023-05-21T03:48:14;98614.05;;;16.29;71.52
77823;BME280;67013;49.730;17.292;2023-05-21T03:50:45;98614.39;;;16.39;71.57
77823;BME280;67013;49.730;17.292;2023-05-21T03:53:14;98614.13;;;16.49;71.29
77823;BME280;67013;49.730;17.292;2023-05-21T03:55:44;98621.81;;;16.58;71.08
77823;BME280;67013;49.730;17.292;2023-05-21T03:58:14;98622.97;;;16.73;70.97
77823;BME280;67013;49.730;17.292;2023-05-21T04:00:43;98626.06;;;17.16;70.39
77823;BME280;67013;49.730;17.292;2023-05-21T04:03:13;98621.27;;;17.86;69.33
77823;BME280;67013;49.730;17.292;2023-05-21T04:05:43;98617.80;;;18.68;67.77
77823;BME280;67013;49.730;17.292;2023-05-21T04:08:13;98616.73;;;19.57;66.26
77823;BME280;67013;49.730;17.292;2023-05-21T04:10:43;98617.11;;;20.53;64.37
77823;BME280;67013;49.730;17.292;2023-05-21T04:13:12;98616.31;;;21.51;62.05
77823;BME280;67013;49.730;17.292;2023-05-21T04:15:41;98616.32;;;22.51;59.97
77823;BME280;67013;49.730;17.292;2023-05-21T04:18:13;98622.52;;;23.54;57.75
77823;BME280;67013;49.730;17.292;2023-05-21T04:20:44;98618.77;;;24.50;55.11
77823;BME280;67013;49.730;17.292;2023-05-21T04:23:13;98619.58;;;25.40;52.83
77823;BME280;67013;49.730;17.292;2023-05-21T04:25:42;98620.00;;;26.31;50.79
77823;BME280;67013;49.730;17.292;2023-05-21T04:28:12;98622.85;;;27.22;48.82
77823;BME280;67013;49.730;17.292;2023-05-21T04:30:47;98623.58;;;28.14;46.47
77823;BME280;67013;49.730;17.292;2023-05-21T04:33:17;98620.95;;;28.97;44.80
77823;BME280;67013;49.730;17.292;2023-05-21T04:35:48;98626.15;;;29.77;42.95
77823;BME280;67013;49.730;17.292;2023-05-21T04:38:18;98620.16;;;30.58;41.21
77823;BME280;67013;49.730;17.292;2023-05-21T04:40:49;98618.31;;;31.34;39.72
77823;BME280;67013;49.730;17.292;2023-05-21T04:43:19;98620.51;;;32.03;38.20
77823;BME280;67013;49.730;17.292;2023-05-21T04:45:53;98617.54;;;32.78;36.89
77823;BME280;67013;49.730;17.292;2023-05-21T04:48:22;98608.48;;;33.51;35.54
77823;BME280;67013;49.730;17.292;2023-05-21T04:50:53;98612.56;;;34.23;34.25
77823;BME280;67013;49.730;17.292;2023-05-21T04:53:24;98605.45;;;34.90;32.82
77823;BME280;67013;49.730;17.292;2023-05-21T04:55:54;98604.48;;;35.54;32.00
77823;BME280;67013;49.730;17.292;2023-05-21T04:58:23;98606.27;;;36.19;31.03
77823;BME280;67013;49.730;17.292;2023-05-21T05:00:53;98604.06;;;36.87;30.28
77823;BME280;67013;49.730;17.292;2023-05-21T05:03:22;98609.98;;;37.50;29.28
77823;BME280;67013;49.730;17.292;2023-05-21T05:05:52;98605.24;;;38.09;28.64
77823;BME280;67013;49.730;17.292;2023-05-21T05:08:21;98602.30;;;38.66;28.12
77823;BME280;67013;49.730;17.292;2023-05-21T05:10:51;98603.15;;;39.09;26.92
77823;BME280;67013;49.730;17.292;2023-05-21T05:13:20;98603.84;;;39.48;26.34
77823;BME280;67013;49.730;17.292;2023-05-21T05:15:50;98606.27;;;39.93;25.61
77823;BME280;67013;49.730;17.292;2023-05-21T05:18:21;98605.88;;;40.43;24.84
77823;BME280;67013;49.730;17.292;2023-05-21T05:20:50;98606.16;;;40.93;24.54
77823;BME280;67013;49.730;17.292;2023-05-21T05:23:20;98601.37;;;41.40;23.84
77823;BME280;67013;49.730;17.292;2023-05-21T05:25:49;98601.50;;;41.85;23.54
77823;BME280;67013;49.730;17.292;2023-05-21T05:28:19;98596.97;;;42.30;22.95
77823;BME280;67013;49.730;17.292;2023-05-21T05:30:48;98595.21;;;42.74;22.23
77823;BME280;67013;49.730;17.292;2023-05-21T05:33:18;98589.63;;;43.14;21.92
77823;BME280;67013;49.730;17.292;2023-05-21T05:35:47;98587.22;;;43.60;21.39
77823;BME280;67013;49.730;17.292;2023-05-21T05:38:17;98587.23;;;44.12;20.94
77823;BME280;67013;49.730;17.292;2023-05-21T05:40:46;98586.96;;;44.61;20.42
77823;BME280;67013;49.730;17.292;2023-05-21T05:43:16;98586.44;;;45.01;20.02
77823;BME280;67013;49.730;17.292;2023-05-21T05:45:45;98582.08;;;45.38;19.44
77823;BME280;67013;49.730;17.292;2023-05-21T05:48:15;98580.19;;;45.75;18.97
77823;BME280;67013;49.730;17.292;2023-05-21T05:50:45;98578.89;;;46.09;18.88
77823;BME280;67013;49.730;17.292;2023-05-21T05:53:14;98576.59;;;46.39;18.68
77823;BME280;67013;49.730;17.292;2023-05-21T05:55:44;98573.83;;;46.61;17.90
77823;BME280;67013;49.730;17.292;2023-05-21T05:58:13;98572.58;;;46.86;17.59
77823;BME280;67013;49.730;17.292;2023-05-21T06:00:43;98573.91;;;47.13;17.54
77823;BME280;67013;49.730;17.292;2023-05-21T06:03:12;98570.46;;;47.31;17.71
77823;BME280;67013;49.730;17.292;2023-05-21T06:05:42;98566.13;;;47.50;17.47
77823;BME280;67013;49.730;17.292;2023-05-21T06:08:11;98565.33;;;47.63;17.02
77823;BME280;67013;49.730;17.292;2023-05-21T06:10:41;98565.80;;;47.87;16.65
77823;BME280;67013;49.730;17.292;2023-05-21T06:13:10;98559.86;;;48.18;16.30
77823;BME280;67013;49.730;17.292;2023-05-21T06:15:39;98560.55;;;48.42;16.19
77823;BME280;67013;49.730;17.292;2023-05-21T06:18:10;98560.66;;;48.51;16.04
77823;BME280;67013;49.730;17.292;2023-05-21T06:20:39;98562.92;;;48.59;15.97
77823;BME280;67013;49.730;17.292;2023-05-21T06:23:09;98560.23;;;48.66;16.07
77823;BME280;67013;49.730;17.292;2023-05-21T06:25:38;98562.77;;;48.78;16.11
77823;BME280;67013;49.730;17.292;2023-05-21T06:28:08;98561.91;;;48.95;15.81
77823;BME280;67013;49.730;17.292;2023-05-21T06:30:38;98564.69;;;49.03;15.82
77823;BME280;67013;49.730;17.292;2023-05-21T06:33:07;98563.27;;;49.03;15.70
77823;BME280;67013;49.730;17.292;2023-05-21T06:35:36;98560.86;;;48.98;16.01
77823;BME280;67013;49.730;17.292;2023-05-21T06:38:07;98559.27;;;48.91;16.11
77823;BME280;67013;49.730;17.292;2023-05-21T06:40:36;98561.00;;;48.84;16.19
77823;BME280;67013;49.730;17.292;2023-05-21T06:43:06;98562.83;;;48.84;16.20
77823;BME280;67013;49.730;17.292;2023-05-21T06:45:35;98562.56;;;48.87;16.09
77823;BME280;67013;49.730;17.292;2023-05-21T06:48:05;98564.93;;;48.87;16.03
77823;BME280;67013;49.730;17.292;2023-05-21T06:50:34;98564.31;;;48.87;16.13
77823;BME280;67013;49.730;17.292;2023-05-21T06:53:04;98559.90;;;48.88;16.04
77823;BME280;67013;49.730;17.292;2023-05-21T06:55:33;98561.42;;;48.88;16.07
77823;BME280;67013;49.730;17.292;2023-05-21T06:58:03;98560.85;;;48.91;16.05
77823;BME280;67013;49.730;17.292;2023-05-21T07:00:32;98557.89;;;48.90;15.90
77823;BME280;67013;49.730;17.292;2023-05-21T07:03:02;98558.25;;;48.72;15.95
77823;BME280;67013;49.730;17.292;2023-05-21T07:05:31;98553.56;;;48.28;16.33
77823;BME280;67013;49.730;17.292;2023-05-21T07:08:01;98551.05;;;47.77;16.45
77823;BME280;67013;49.730;17.292;2023-05-21T07:10:30;98543.06;;;47.21;16.38
77823;BME280;67013;49.730;17.292;2023-05-21T07:12:59;98543.48;;;46.62;17.10
77823;BME280;67013;49.730;17.292;2023-05-21T07:15:29;98539.06;;;46.12;17.33
77823;BME280;67013;49.730;17.292;2023-05-21T07:17:58;98536.25;;;45.58;17.64
77823;BME280;67013;49.730;17.292;2023-05-21T07:20:28;98532.34;;;45.06;18.14
77823;BME280;67013;49.730;17.292;2023-05-21T07:22:57;98527.78;;;44.53;18.47
77823;BME280;67013;49.730;17.292;2023-05-21T07:25:27;98527.02;;;44.02;19.08
77823;BME280;67013;49.730;17.292;2023-05-21T07:27:56;98526.58;;;43.57;19.04
77823;BME280;67013;49.730;17.292;2023-05-21T07:30:26;98526.50;;;43.15;18.78
77823;BME280;67013;49.730;17.292;2023-05-21T07:32:55;98523.38;;;42.82;19.23
77823;BME280;67013;49.730;17.292;2023-05-21T07:35:25;98524.36;;;42.55;19.58
77823;BME280;67013;49.730;17.292;2023-05-21T07:37:54;98520.73;;;42.09;19.33
77823;BME280;67013;49.730;17.292;2023-05-21T07:40:24;98517.70;;;41.68;20.06
77823;BME280;67013;49.730;17.292;2023-05-21T07:42:53;98518.75;;;41.35;20.19
77823;BME280;67013;49.730;17.292;2023-05-21T07:45:23;98525.10;;;40.58;20.56
77823;BME280;67013;49.730;17.292;2023-05-21T07:47:52;98519.59;;;39.97;21.24
77823;BME280;67013;49.730;17.292;2023-05-21T07:50:22;98514.27;;;39.43;21.96
77823;BME280;67013;49.730;17.292;2023-05-21T07:52:52;98512.03;;;39.07;22.44
77823;BME280;67013;49.730;17.292;2023-05-21T07:55:21;98510.09;;;38.65;22.80
77823;BME280;67013;49.730;17.292;2023-05-21T07:57:51;98513.47;;;38.19;23.16
77823;BME280;67013;49.730;17.292;2023-05-21T08:00:23;98513.02;;;37.96;23.53
77823;BME280;67013;49.730;17.292;2023-05-21T08:02:53;98513.14;;;37.81;23.72
77823;BME280;67013;49.730;17.292;2023-05-21T08:05:23;98514.30;;;37.57;23.47
77823;BME280;67013;49.730;17.292;2023-05-21T08:07:52;98511.30;;;37.32;23.51
77823;BME280;67013;49.730;17.292;2023-05-21T08:10:22;98509.72;;;37.23;23.95
77823;BME280;67013;49.730;17.292;2023-05-21T08:12:51;98514.27;;;37.17;24.64
77823;BME280;67013;49.730;17.292;2023-05-21T08:15:21;98516.16;;;37.08;25.80
77823;BME280;67013;49.730;17.292;2023-05-21T08:17:50;98515.70;;;37.00;26.53
77823;BME280;67013;49.730;17.292;2023-05-21T08:20:19;98508.78;;;36.94;27.11
77823;BME280;67013;49.730;17.292;2023-05-21T08:22:49;98514.06;;;36.93;27.30
77823;BME280;67013;49.730;17.292;2023-05-21T08:25:18;98516.08;;;37.00;25.62
77823;BME280;67013;49.730;17.292;2023-05-21T08:27:48;98518.30;;;37.05;24.73
77823;BME280;67013;49.730;17.292;2023-05-21T08:30:18;98514.88;;;37.02;24.99
77823;BME280;67013;49.730;17.292;2023-05-21T08:32:47;98512.64;;;36.94;25.39
77823;BME280;67013;49.730;17.292;2023-05-21T08:35:17;98517.40;;;36.86;25.10
77823;BME280;67013;49.730;17.292;2023-05-21T08:37:47;98517.52;;;36.63;25.12
77823;BME280;67013;49.730;17.292;2023-05-21T08:40:16;98516.08;;;36.30;25.02
77823;BME280;67013;49.730;17.292;2023-05-21T08:42:48;98517.36;;;35.89;25.45
77823;BME280;67013;49.730;17.292;2023-05-21T08:45:21;98516.94;;;35.47;25.40
77823;BME280;67013;49.730;17.292;2023-05-21T08:47:55;98517.14;;;35.07;26.36
77823;BME280;67013;49.730;17.292;2023-05-21T08:50:27;98518.44;;;34.67;26.42
77823;BME280;67013;49.730;17.292;2023-05-21T08:52:56;98517.39;;;34.34;26.67
77823;BME280;67013;49.730;17.292;2023-05-21T08:55:28;98512.71;;;34.02;27.74
77823;BME280;67013;49.730;17.292;2023-05-21T08:57:59;98512.73;;;33.72;29.09
77823;BME280;67013;49.730;17.292;2023-05-21T09:00:29;98513.00;;;33.44;29.89
77823;BME280;67013;49.730;17.292;2023-05-21T09:03:00;98511.40;;;33.17;29.96
77823;BME280;67013;49.730;17.292;2023-05-21T09:05:35;98509.67;;;32.88;30.97
77823;BME280;67013;49.730;17.292;2023-05-21T09:08:10;98509.42;;;32.57;31.80
77823;BME280;67013;49.730;17.292;2023-05-21T09:10:47;98513.45;;;32.29;32.33
77823;BME280;67013;49.730;17.292;2023-05-21T09:13:17;98513.55;;;32.05;32.85
77823;BME280;67013;49.730;17.292;2023-05-21T09:15:46;98515.30;;;31.89;33.52
77823;BME280;67013;49.730;17.292;2023-05-21T09:18:16;98517.29;;;31.69;33.67
77823;BME280;67013;49.730;17.292;2023-05-21T09:20:45;98516.76;;;31.48;33.45
77823;BME280;67013;49.730;17.292;2023-05-21T09:23:17;98517.62;;;31.34;33.58
77823;BME280;67013;49.730;17.292;2023-05-21T09:25:48;98513.06;;;31.23;33.88
77823;BME280;67013;49.730;17.292;2023-05-21T09:28:19;98513.84;;;31.15;34.14
77823;BME280;67013;49.730;17.292;2023-05-21T09:30:51;98510.27;;;31.12;34.52
77823;BME280;67013;49.730;17.292;2023-05-21T09:33:26;98506.20;;;31.02;34.76
77823;BME280;67013;49.730;17.292;2023-05-21T09:35:57;98506.13;;;30.90;35.43
77823;BME280;67013;49.730;17.292;2023-05-21T09:38:26;98505.62;;;30.74;35.36
77823;BME280;67013;49.730;17.292;2023-05-21T09:40:56;98506.27;;;30.55;35.60
77823;BME280;67013;49.730;17.292;2023-05-21T09:43:26;98507.77;;;30.39;35.63
77823;BME280;67013;49.730;17.292;2023-05-21T09:45:56;98503.95;;;30.24;35.89
77823;BME280;67013;49.730;17.292;2023-05-21T09:48:35;98503.15;;;30.10;36.12
77823;BME280;67013;49.730;17.292;2023-05-21T09:51:14;98500.81;;;29.96;36.05
77823;BME280;67013;49.730;17.292;2023-05-21T09:53:49;98499.11;;;29.84;35.99
77823;BME280;67013;49.730;17.292;2023-05-21T09:56:21;98504.05;;;29.73;36.04
77823;BME280;67013;49.730;17.292;2023-05-21T09:58:53;98506.19;;;29.63;36.12
77823;BME280;67013;49.730;17.292;2023-05-21T10:01:24;98502.45;;;29.54;35.65
77823;BME280;67013;49.730;17.292;2023-05-21T10:03:57;98498.92;;;29.42;35.46
77823;BME280;67013;49.730;17.292;2023-05-21T10:06:29;98496.83;;;29.32;35.71
77823;BME280;67013;49.730;17.292;2023-05-21T10:09:00;98499.55;;;29.22;36.15
77823;BME280;67013;49.730;17.292;2023-05-21T10:11:31;98494.17;;;29.12;36.42
77823;BME280;67013;49.730;17.292;2023-05-21T10:14:05;98496.16;;;29.04;36.02
77823;BME280;67013;49.730;17.292;2023-05-21T10:16:36;98494.76;;;28.94;36.98
77823;BME280;67013;49.730;17.292;2023-05-21T10:19:05;98493.88;;;28.85;38.66
77823;BME280;67013;49.730;17.292;2023-05-21T10:21:38;98495.08;;;28.75;40.83
77823;BME280;67013;49.730;17.292;2023-05-21T10:24:08;98491.80;;;28.66;41.24
77823;BME280;67013;49.730;17.292;2023-05-21T10:26:39;98492.64;;;28.58;42.71
77823;BME280;67013;49.730;17.292;2023-05-21T10:29:10;98489.41;;;28.54;43.15
77823;BME280;67013;49.730;17.292;2023-05-21T10:31:40;98488.33;;;28.61;44.16
77823;BME280;67013;49.730;17.292;2023-05-21T10:34:14;98487.38;;;28.74;45.06
77823;BME280;67013;49.730;17.292;2023-05-21T10:36:44;98485.92;;;28.83;44.47
77823;BME280;67013;49.730;17.292;2023-05-21T10:39:15;98484.14;;;28.88;42.55
77823;BME280;67013;49.730;17.292;2023-05-21T10:41:50;98483.31;;;28.88;40.13
77823;BME280;67013;49.730;17.292;2023-05-21T10:44:32;98485.61;;;28.89;40.64
77823;BME280;67013;49.730;17.292;2023-05-21T10:47:25;98483.15;;;28.96;40.58
77823;BME280;67013;49.730;17.292;2023-05-21T10:50:13;98484.33;;;28.97;39.70
77823;BME280;67013;49.730;17.292;2023-05-21T10:53:03;98479.34;;;29.00;40.38
77823;BME280;67013;49.730;17.292;2023-05-21T10:55:49;98475.23;;;29.07;40.07
77823;BME280;67013;49.730;17.292;2023-05-21T10:58:50;98476.03;;;29.27;39.80
77823;BME280;67013;49.730;17.292;2023-05-21T11:01:23;98471.57;;;29.38;39.70
77823;BME280;67013;49.730;17.292;2023-05-21T11:03:55;98474.49;;;29.45;39.00
77823;BME280;67013;49.730;17.292;2023-05-21T11:06:26;98474.83;;;29.49;38.45
77823;BME280;67013;49.730;17.292;2023-05-21T11:08:54;98468.17;;;29.48;38.02
77823;BME280;67013;49.730;17.292;2023-05-21T11:11:43;98463.70;;;29.45;37.40
77823;BME280;67013;49.730;17.292;2023-05-21T11:14:29;98462.08;;;29.43;37.21
77823;BME280;67013;49.730;17.292;2023-05-21T11:16:59;98463.77;;;29.41;37.72
77823;BME280;67013;49.730;17.292;2023-05-21T11:19:39;98463.92;;;29.42;37.44
77823;BME280;67013;49.730;17.292;2023-05-21T11:22:20;98460.02;;;29.44;37.23
77823;BME280;67013;49.730;17.292;2023-05-21T11:24:50;98458.05;;;29.45;36.76
77823;BME280;67013;49.730;17.292;2023-05-21T11:27:34;98459.90;;;29.46;36.00
77823;BME280;67013;49.730;17.292;2023-05-21T11:30:13;98459.00;;;29.44;36.21
77823;BME280;67013;49.730;17.292;2023-05-21T11:33:18;98460.36;;;29.45;36.64
77823;BME280;67013;49.730;17.292;2023-05-21T11:35:58;98457.00;;;29.46;37.08
77823;BME280;67013;49.730;17.292;2023-05-21T11:38:30;98457.94;;;29.47;35.89
77823;BME280;67013;49.730;17.292;2023-05-21T11:41:04;98456.08;;;29.46;35.56
77823;BME280;67013;49.730;17.292;2023-05-21T11:43:33;98453.16;;;29.52;35.82
77823;BME280;67013;49.730;17.292;2023-05-21T11:46:10;98451.20;;;29.57;36.36
77823;BME280;67013;49.730;17.292;2023-05-21T11:48:41;98448.73;;;29.64;35.71
77823;BME280;67013;49.730;17.292;2023-05-21T11:51:10;98449.10;;;29.71;35.15
77823;BME280;67013;49.730;17.292;2023-05-21T11:53:41;98445.09;;;29.76;35.01
77823;BME280;67013;49.730;17.292;2023-05-21T11:56:10;98439.41;;;29.81;35.36
77823;BME280;67013;49.730;17.292;2023-05-21T11:58:44;98439.11;;;29.89;35.58
77823;BME280;67013;49.730;17.292;2023-05-21T12:01:23;98438.08;;;30.02;35.05
77823;BME280;67013;49.730;17.292;2023-05-21T12:03:53;98435.56;;;30.17;35.13
77823;BME280;67013;49.730;17.292;2023-05-21T12:06:27;98433.58;;;30.30;34.97
77823;BME280;67013;49.730;17.292;2023-05-21T12:08:58;98431.12;;;30.41;35.40
77823;BME280;67013;49.730;17.292;2023-05-21T12:11:27;98431.33;;;30.46;35.03
77823;BME280;67013;49.730;17.292;2023-05-21T12:13:57;98428.10;;;30.47;34.84
77823;BME280;67013;49.730;17.292;2023-05-21T12:16:26;98424.77;;;30.45;35.10
77823;BME280;67013;49.730;17.292;2023-05-21T12:18:56;98423.34;;;30.43;35.18
77823;BME280;67013;49.730;17.292;2023-05-21T12:21:27;98422.45;;;30.36;35.36
77823;BME280;67013;49.730;17.292;2023-05-21T12:23:59;98423.05;;;30.26;34.94
77823;BME280;67013;49.730;17.292;2023-05-21T12:26:28;98426.79;;;30.15;34.98
77823;BME280;67013;49.730;17.292;2023-05-21T12:29:00;98426.66;;;30.01;33.80
77823;BME280;67013;49.730;17.292;2023-05-21T12:31:30;98423.90;;;29.79;32.45
77823;BME280;67013;49.730;17.292;2023-05-21T12:34:00;98428.89;;;29.55;32.74
77823;BME280;67013;49.730;17.292;2023-05-21T12:36:30;98422.43;;;29.31;32.47
77823;BME280;67013;49.730;17.292;2023-05-21T12:39:01;98424.70;;;29.01;32.49
77823;BME280;67013;49.730;17.292;2023-05-21T12:41:31;98420.08;;;28.76;32.64
77823;BME280;67013;49.730;17.292;2023-05-21T12:44:00;98418.14;;;28.49;33.07
77823;BME280;67013;49.730;17.292;2023-05-21T12:46:32;98414.45;;;28.23;33.70
77823;BME280;67013;49.730;17.292;2023-05-21T12:49:01;98413.65;;;28.02;33.93
77823;BME280;67013;49.730;17.292;2023-05-21T12:51:39;98407.35;;;27.86;34.41
77823;BME280;67013;49.730;17.292;2023-05-21T12:54:13;98406.84;;;27.70;34.30
77823;BME280;67013;49.730;17.292;2023-05-21T12:56:45;98408.53;;;27.53;34.99
77823;BME280;67013;49.730;17.292;2023-05-21T12:59:15;98407.12;;;27.40;35.27
77823;BME280;67013;49.730;17.292;2023-05-21T13:01:47;98408.00;;;27.26;35.41
77823;BME280;67013;49.730;17.292;2023-05-21T13:04:19;98401.99;;;27.18;35.12
77823;BME280;67013;49.730;17.292;2023-05-21T13:06:49;98399.54;;;27.12;34.83
77823;BME280;67013;49.730;17.292;2023-05-21T13:09:18;98399.40;;;27.08;35.55